sensor_id;sensor_type;location;lat;lon;timestamp;P1;durP1;ratioP1;P2;durP2;ratioP2
179;SDS011;78;48.788;9.010;2022-07-18T00:00:05;18.80;;;4.40;;
179;SDS011;78;48.788;9.010;2022-07-18T00:02:32;17.07;;;4.07;;
179;SDS011;78;48.788;9.010;2022-07-18T00:04:58;19.77;;;4.30;;
179;SDS011;78;48.788;9.010;2022-07-18T00:07:25;19.20;;;4.80;;
179;SDS011;78;48.788;9.010;2022-07-18T00:09:51;18.10;;;4.60;;
179;SDS011;78;48.788;9.010;2022-07-18T00:12:17;23.93;;;4.20;;
179;SDS011;78;48.788;9.010;2022-07-18T00:14:43;18.40;;;4.40;;
179;SDS011;78;48.788;9.010;2022-07-18T00:17:10;17.57;;;4.20;;
179;SDS011;78;48.788;9.010;2022-07-18T00:19:36;18.27;;;4.00;;
179;SDS011;78;48.788;9.010;2022-07-18T00:22:03;17.63;;;4.37;;
179;SDS011;78;48.788;9.010;2022-07-18T00:24:30;17.63;;;4.37;;
179;SDS011;78;48.788;9.010;2022-07-18T00:26:57;20.50;;;4.40;;
179;SDS011;78;48.788;9.010;2022-07-18T00:29:23;17.00;;;4.00;;
179;SDS011;78;48.788;9.010;2022-07-18T00:31:49;17.27;;;4.00;;
179;SDS011;78;48.788;9.010;2022-07-18T00:34:15;19.10;;;4.80;;
179;SDS011;78;48.788;9.010;2022-07-18T00:36:41;17.23;;;4.33;;
179;SDS011;78;48.788;9.010;2022-07-18T00:39:08;18.60;;;4.30;;
179;SDS011;78;48.788;9.010;2022-07-18T00:41:34;17.57;;;4.20;;
179;SDS011;78;48.788;9.010;2022-07-18T00:44:01;17.13;;;4.43;;
179;SDS011;78;48.788;9.010;2022-07-18T00:46:29;17.40;;;4.20;;
179;SDS011;78;48.788;9.010;2022-07-18T00:48:55;18.57;;;4.03;;
179;SDS011;78;48.788;9.010;2022-07-18T00:51:21;18.40;;;4.70;;
179;SDS011;78;48.788;9.010;2022-07-18T00:53:48;17.47;;;4.30;;
179;SDS011;78;48.788;9.010;2022-07-18T00:56:16;20.80;;;4.37;;
179;SDS011;78;48.788;9.010;2022-07-18T00:58:43;17.40;;;4.40;;
179;SDS011;78;48.788;9.010;2022-07-18T01:01:09;17.50;;;4.17;;
179;SDS011;78;48.788;9.010;2022-07-18T01:03:54;16.53;;;4.10;;
179;SDS011;78;48.788;9.010;2022-07-18T01:06:21;17.57;;;3.97;;
179;SDS011;78;48.788;9.010;2022-07-18T01:08:47;17.60;;;4.33;;
179;SDS011;78;48.788;9.010;2022-07-18T01:11:13;17.47;;;4.20;;
179;SDS011;78;48.788;9.010;2022-07-18T01:13:40;18.20;;;4.27;;
179;SDS011;78;48.788;9.010;2022-07-18T01:16:07;18.27;;;4.23;;
179;SDS011;78;48.788;9.010;2022-07-18T01:18:34;22.37;;;4.23;;
179;SDS011;78;48.788;9.010;2022-07-18T01:21:00;17.50;;;4.50;;
179;SDS011;78;48.788;9.010;2022-07-18T01:23:27;19.43;;;4.60;;
179;SDS011;78;48.788;9.010;2022-07-18T01:25:53;17.83;;;4.33;;
179;SDS011;78;48.788;9.010;2022-07-18T01:28:20;22.30;;;4.63;;
179;SDS011;78;48.788;9.010;2022-07-18T01:30:46;16.53;;;3.97;;
179;SDS011;78;48.788;9.010;2022-07-18T01:33:13;17.00;;;4.47;;
179;SDS011;78;48.788;9.010;2022-07-18T01:35:39;17.67;;;4.20;;
179;SDS011;78;48.788;9.010;2022-07-18T01:38:06;19.23;;;4.87;;
179;SDS011;78;48.788;9.010;2022-07-18T01:40:32;17.93;;;4.33;;
179;SDS011;78;48.788;9.010;2022-07-18T01:42:59;18.60;;;4.53;;
179;SDS011;78;48.788;9.010;2022-07-18T01:45:25;19.50;;;4.70;;
179;SDS011;78;48.788;9.010;2022-07-18T01:47:51;17.70;;;4.50;;
179;SDS011;78;48.788;9.010;2022-07-18T01:50:18;18.03;;;4.60;;
179;SDS011;78;48.788;9.010;2022-07-18T01:52:44;17.83;;;4.40;;
179;SDS011;78;48.788;9.010;2022-07-18T01:55:11;18.77;;;4.50;;
179;SDS011;78;48.788;9.010;2022-07-18T01:57:37;18.33;;;4.20;;
179;SDS011;78;48.788;9.010;2022-07-18T02:00:04;17.53;;;4.37;;
179;SDS011;78;48.788;9.010;2022-07-18T02:02:31;17.10;;;4.23;;
179;SDS011;78;48.788;9.010;2022-07-18T02:04:57;20.37;;;4.70;;
179;SDS011;78;48.788;9.010;2022-07-18T02:07:26;19.27;;;4.60;;
179;SDS011;78;48.788;9.010;2022-07-18T02:09:52;17.80;;;4.10;;
179;SDS011;78;48.788;9.010;2022-07-18T02:12:19;16.70;;;4.30;;
179;SDS011;78;48.788;9.010;2022-07-18T02:14:45;19.00;;;4.53;;
179;SDS011;78;48.788;9.010;2022-07-18T02:17:11;17.13;;;3.93;;
179;SDS011;78;48.788;9.010;2022-07-18T02:19:38;16.93;;;4.20;;
179;SDS011;78;48.788;9.010;2022-07-18T02:22:04;18.60;;;4.60;;
179;SDS011;78;48.788;9.010;2022-07-18T02:24:30;17.70;;;4.50;;
179;SDS011;78;48.788;9.010;2022-07-18T02:26:56;17.87;;;4.40;;
179;SDS011;78;48.788;9.010;2022-07-18T02:29:22;19.07;;;4.27;;
179;SDS011;78;48.788;9.010;2022-07-18T02:31:49;18.13;;;4.67;;
179;SDS011;78;48.788;9.010;2022-07-18T02:34:15;18.37;;;4.27;;
179;SDS011;78;48.788;9.010;2022-07-18T02:36:42;17.40;;;4.30;;
179;SDS011;78;48.788;9.010;2022-07-18T02:39:08;20.70;;;4.50;;
179;SDS011;78;48.788;9.010;2022-07-18T02:41:35;17.33;;;4.30;;
179;SDS011;78;48.788;9.010;2022-07-18T02:44:02;18.53;;;4.53;;
179;SDS011;78;48.788;9.010;2022-07-18T02:46:28;18.40;;;4.40;;
179;SDS011;78;48.788;9.010;2022-07-18T02:48:54;19.10;;;4.40;;
179;SDS011;78;48.788;9.010;2022-07-18T02:51:20;18.30;;;4.70;;
179;SDS011;78;48.788;9.010;2022-07-18T02:53:47;19.00;;;4.50;;
179;SDS011;78;48.788;9.010;2022-07-18T02:56:13;17.30;;;4.50;;
179;SDS011;78;48.788;9.010;2022-07-18T02:58:40;17.53;;;4.67;;
179;SDS011;78;48.788;9.010;2022-07-18T03:01:06;18.70;;;4.37;;
179;SDS011;78;48.788;9.010;2022-07-18T03:03:32;17.47;;;4.10;;
179;SDS011;78;48.788;9.010;2022-07-18T03:05:59;17.67;;;4.33;;
179;SDS011;78;48.788;9.010;2022-07-18T03:08:25;19.57;;;4.23;;
179;SDS011;78;48.788;9.010;2022-07-18T03:10:52;20.57;;;4.40;;
179;SDS011;78;48.788;9.010;2022-07-18T03:13:18;18.97;;;4.13;;
179;SDS011;78;48.788;9.010;2022-07-18T03:15:44;17.80;;;4.50;;
179;SDS011;78;48.788;9.010;2022-07-18T03:18:11;16.67;;;3.90;;
179;SDS011;78;48.788;9.010;2022-07-18T03:20:37;17.60;;;4.30;;
179;SDS011;78;48.788;9.010;2022-07-18T03:23:04;16.73;;;3.93;;
179;SDS011;78;48.788;9.010;2022-07-18T03:25:31;16.63;;;4.07;;
179;SDS011;78;48.788;9.010;2022-07-18T03:27:57;17.50;;;4.27;;
179;SDS011;78;48.788;9.010;2022-07-18T03:30:24;18.10;;;4.10;;
179;SDS011;78;48.788;9.010;2022-07-18T03:32:50;17.67;;;4.10;;
179;SDS011;78;48.788;9.010;2022-07-18T03:35:17;17.70;;;4.10;;
179;SDS011;78;48.788;9.010;2022-07-18T03:37:43;17.23;;;4.20;;
179;SDS011;78;48.788;9.010;2022-07-18T03:40:09;18.13;;;4.20;;
179;SDS011;78;48.788;9.010;2022-07-18T03:42:37;17.60;;;4.33;;
179;SDS011;78;48.788;9.010;2022-07-18T03:45:03;17.30;;;4.00;;
179;SDS011;78;48.788;9.010;2022-07-18T03:47:30;18.10;;;4.20;;
179;SDS011;78;48.788;9.010;2022-07-18T03:49:56;16.33;;;4.07;;
179;SDS011;78;48.788;9.010;2022-07-18T03:52:23;17.20;;;4.20;;
179;SDS011;78;48.788;9.010;2022-07-18T03:54:49;19.70;;;4.20;;
179;SDS011;78;48.788;9.010;2022-07-18T03:57:15;17.23;;;4.20;;
179;SDS011;78;48.788;9.010;2022-07-18T03:59:41;18.73;;;4.23;;
179;SDS011;78;48.788;9.010;2022-07-18T04:02:08;18.77;;;4.40;;
179;SDS011;78;48.788;9.010;2022-07-18T04:04:34;18.30;;;4.27;;
179;SDS011;78;48.788;9.010;2022-07-18T04:07:00;20.10;;;4.40;;
179;SDS011;78;48.788;9.010;2022-07-18T04:09:27;20.93;;;4.40;;
179;SDS011;78;48.788;9.010;2022-07-18T04:11:53;18.40;;;4.60;;
179;SDS011;78;48.788;9.010;2022-07-18T04:14:20;18.27;;;4.43;;
179;SDS011;78;48.788;9.010;2022-07-18T04:16:47;17.00;;;4.43;;
179;SDS011;78;48.788;9.010;2022-07-18T04:19:13;16.77;;;4.30;;
179;SDS011;78;48.788;9.010;2022-07-18T04:21:39;17.70;;;4.07;;
179;SDS011;78;48.788;9.010;2022-07-18T04:24:06;19.03;;;4.50;;
179;SDS011;78;48.788;9.010;2022-07-18T04:26:32;17.93;;;4.50;;
179;SDS011;78;48.788;9.010;2022-07-18T04:28:59;17.10;;;4.20;;
179;SDS011;78;48.788;9.010;2022-07-18T04:31:25;18.63;;;4.40;;
179;SDS011;78;48.788;9.010;2022-07-18T04:33:52;17.57;;;4.33;;
179;SDS011;78;48.788;9.010;2022-07-18T04:36:18;18.07;;;4.40;;
179;SDS011;78;48.788;9.010;2022-07-18T04:38:44;17.00;;;4.20;;
179;SDS011;78;48.788;9.010;2022-07-18T04:41:11;18.10;;;4.33;;
179;SDS011;78;48.788;9.010;2022-07-18T04:43:37;19.83;;;4.63;;
179;SDS011;78;48.788;9.010;2022-07-18T04:46:03;18.10;;;4.87;;
179;SDS011;78;48.788;9.010;2022-07-18T04:48:30;18.37;;;4.80;;
179;SDS011;78;48.788;9.010;2022-07-18T04:50:56;17.50;;;4.20;;
179;SDS011;78;48.788;9.010;2022-07-18T04:53:22;22.93;;;5.03;;
179;SDS011;78;48.788;9.010;2022-07-18T04:55:48;21.83;;;5.00;;
179;SDS011;78;48.788;9.010;2022-07-18T04:58:14;19.60;;;4.80;;
179;SDS011;78;48.788;9.010;2022-07-18T05:00:40;17.60;;;4.50;;
179;SDS011;78;48.788;9.010;2022-07-18T05:03:06;18.30;;;4.67;;
179;SDS011;78;48.788;9.010;2022-07-18T05:05:32;19.70;;;4.90;;
179;SDS011;78;48.788;9.010;2022-07-18T05:07:58;19.13;;;4.90;;
179;SDS011;78;48.788;9.010;2022-07-18T05:10:24;18.73;;;5.10;;
179;SDS011;78;48.788;9.010;2022-07-18T05:12:51;21.03;;;4.93;;
179;SDS011;78;48.788;9.010;2022-07-18T05:15:19;19.80;;;4.93;;
179;SDS011;78;48.788;9.010;2022-07-18T05:17:45;21.40;;;4.90;;
179;SDS011;78;48.788;9.010;2022-07-18T05:20:12;18.50;;;4.60;;
179;SDS011;78;48.788;9.010;2022-07-18T05:22:39;20.13;;;4.80;;
179;SDS011;78;48.788;9.010;2022-07-18T05:25:05;23.70;;;5.10;;
179;SDS011;78;48.788;9.010;2022-07-18T05:27:32;21.60;;;4.70;;
179;SDS011;78;48.788;9.010;2022-07-18T05:29:58;18.40;;;4.57;;
179;SDS011;78;48.788;9.010;2022-07-18T05:32:27;24.43;;;5.13;;
179;SDS011;78;48.788;9.010;2022-07-18T05:34:54;18.40;;;4.67;;
179;SDS011;78;48.788;9.010;2022-07-18T05:37:20;19.03;;;5.10;;
179;SDS011;78;48.788;9.010;2022-07-18T05:39:46;29.93;;;5.30;;
179;SDS011;78;48.788;9.010;2022-07-18T05:42:12;18.80;;;5.10;;
179;SDS011;78;48.788;9.010;2022-07-18T05:44:38;22.57;;;5.17;;
179;SDS011;78;48.788;9.010;2022-07-18T05:47:04;21.30;;;4.80;;
179;SDS011;78;48.788;9.010;2022-07-18T05:49:30;19.80;;;5.20;;
179;SDS011;78;48.788;9.010;2022-07-18T05:51:56;24.77;;;4.70;;
179;SDS011;78;48.788;9.010;2022-07-18T05:54:22;18.23;;;4.20;;
179;SDS011;78;48.788;9.010;2022-07-18T05:56:49;25.03;;;5.07;;
179;SDS011;78;48.788;9.010;2022-07-18T05:59:15;19.80;;;4.70;;
179;SDS011;78;48.788;9.010;2022-07-18T06:01:42;20.50;;;4.73;;
179;SDS011;78;48.788;9.010;2022-07-18T06:04:08;21.53;;;4.60;;
179;SDS011;78;48.788;9.010;2022-07-18T06:06:34;20.93;;;4.57;;
179;SDS011;78;48.788;9.010;2022-07-18T06:09:00;26.13;;;4.40;;
179;SDS011;78;48.788;9.010;2022-07-18T06:11:26;23.73;;;4.40;;
179;SDS011;78;48.788;9.010;2022-07-18T06:13:52;21.97;;;4.60;;
179;SDS011;78;48.788;9.010;2022-07-18T06:16:18;21.70;;;5.03;;
179;SDS011;78;48.788;9.010;2022-07-18T06:18:44;22.30;;;4.00;;
179;SDS011;78;48.788;9.010;2022-07-18T06:21:10;20.80;;;4.60;;
179;SDS011;78;48.788;9.010;2022-07-18T06:23:36;17.80;;;4.00;;
179;SDS011;78;48.788;9.010;2022-07-18T06:26:03;23.97;;;5.03;;
179;SDS011;78;48.788;9.010;2022-07-18T06:28:29;19.87;;;4.40;;
179;SDS011;78;48.788;9.010;2022-07-18T06:30:55;20.60;;;4.53;;
179;SDS011;78;48.788;9.010;2022-07-18T06:33:21;22.17;;;4.30;;
179;SDS011;78;48.788;9.010;2022-07-18T06:35:47;19.00;;;4.40;;
179;SDS011;78;48.788;9.010;2022-07-18T06:38:14;17.97;;;4.23;;
179;SDS011;78;48.788;9.010;2022-07-18T06:40:40;21.77;;;4.60;;
179;SDS011;78;48.788;9.010;2022-07-18T06:43:06;26.43;;;4.40;;
179;SDS011;78;48.788;9.010;2022-07-18T06:45:32;20.73;;;4.50;;
179;SDS011;78;48.788;9.010;2022-07-18T06:47:58;18.53;;;4.20;;
179;SDS011;78;48.788;9.010;2022-07-18T06:50:24;20.23;;;4.30;;
179;SDS011;78;48.788;9.010;2022-07-18T06:52:50;23.43;;;4.20;;
179;SDS011;78;48.788;9.010;2022-07-18T06:55:16;21.40;;;4.60;;
179;SDS011;78;48.788;9.010;2022-07-18T06:57:42;24.00;;;4.40;;
179;SDS011;78;48.788;9.010;2022-07-18T07:00:09;20.20;;;4.47;;
179;SDS011;78;48.788;9.010;2022-07-18T07:02:43;19.17;;;4.43;;
179;SDS011;78;48.788;9.010;2022-07-18T07:05:10;29.50;;;4.27;;
179;SDS011;78;48.788;9.010;2022-07-18T07:07:36;20.47;;;4.53;;
179;SDS011;78;48.788;9.010;2022-07-18T07:10:02;22.30;;;4.40;;
179;SDS011;78;48.788;9.010;2022-07-18T07:12:29;22.50;;;4.40;;
179;SDS011;78;48.788;9.010;2022-07-18T07:14:55;18.70;;;4.10;;
179;SDS011;78;48.788;9.010;2022-07-18T07:17:21;19.07;;;4.30;;
179;SDS011;78;48.788;9.010;2022-07-18T07:19:47;23.33;;;4.47;;
179;SDS011;78;48.788;9.010;2022-07-18T07:22:13;22.40;;;4.13;;
179;SDS011;78;48.788;9.010;2022-07-18T07:24:39;21.70;;;4.40;;
179;SDS011;78;48.788;9.010;2022-07-18T07:27:05;19.30;;;4.10;;
179;SDS011;78;48.788;9.010;2022-07-18T07:29:31;25.50;;;4.33;;
179;SDS011;78;48.788;9.010;2022-07-18T07:31:57;18.50;;;4.40;;
179;SDS011;78;48.788;9.010;2022-07-18T07:34:24;20.60;;;4.27;;
179;SDS011;78;48.788;9.010;2022-07-18T07:36:50;17.37;;;3.97;;
179;SDS011;78;48.788;9.010;2022-07-18T07:39:16;15.93;;;3.63;;
179;SDS011;78;48.788;9.010;2022-07-18T07:41:42;17.40;;;3.80;;
179;SDS011;78;48.788;9.010;2022-07-18T07:44:08;16.87;;;3.83;;
179;SDS011;78;48.788;9.010;2022-07-18T07:46:34;16.30;;;4.03;;
179;SDS011;78;48.788;9.010;2022-07-18T07:49:00;18.97;;;4.10;;
179;SDS011;78;48.788;9.010;2022-07-18T07:51:26;25.80;;;3.77;;
179;SDS011;78;48.788;9.010;2022-07-18T07:53:52;20.70;;;4.07;;
179;SDS011;78;48.788;9.010;2022-07-18T07:56:18;15.87;;;3.77;;
179;SDS011;78;48.788;9.010;2022-07-18T07:58:44;16.97;;;4.00;;
179;SDS011;78;48.788;9.010;2022-07-18T08:01:11;16.70;;;3.90;;
179;SDS011;78;48.788;9.010;2022-07-18T08:03:38;17.23;;;3.70;;
179;SDS011;78;48.788;9.010;2022-07-18T08:06:03;17.20;;;4.00;;
179;SDS011;78;48.788;9.010;2022-07-18T08:08:30;18.30;;;4.00;;
179;SDS011;78;48.788;9.010;2022-07-18T08:10:56;20.17;;;4.20;;
179;SDS011;78;48.788;9.010;2022-07-18T08:13:22;16.80;;;4.20;;
179;SDS011;78;48.788;9.010;2022-07-18T08:15:48;18.13;;;3.67;;
179;SDS011;78;48.788;9.010;2022-07-18T08:18:14;16.33;;;3.93;;
179;SDS011;78;48.788;9.010;2022-07-18T08:20:40;16.30;;;3.80;;
179;SDS011;78;48.788;9.010;2022-07-18T08:23:07;17.17;;;4.00;;
179;SDS011;78;48.788;9.010;2022-07-18T08:25:35;16.63;;;3.80;;
179;SDS011;78;48.788;9.010;2022-07-18T08:28:02;16.87;;;3.93;;
179;SDS011;78;48.788;9.010;2022-07-18T08:30:29;17.10;;;3.70;;
179;SDS011;78;48.788;9.010;2022-07-18T08:32:55;17.73;;;4.00;;
179;SDS011;78;48.788;9.010;2022-07-18T08:35:21;16.00;;;3.90;;
179;SDS011;78;48.788;9.010;2022-07-18T08:37:47;16.60;;;3.90;;
179;SDS011;78;48.788;9.010;2022-07-18T08:40:13;17.77;;;3.80;;
179;SDS011;78;48.788;9.010;2022-07-18T08:42:40;15.80;;;3.70;;
179;SDS011;78;48.788;9.010;2022-07-18T08:45:06;15.90;;;3.83;;
179;SDS011;78;48.788;9.010;2022-07-18T08:47:33;17.73;;;4.00;;
179;SDS011;78;48.788;9.010;2022-07-18T08:49:59;19.17;;;4.30;;
179;SDS011;78;48.788;9.010;2022-07-18T08:52:27;17.60;;;4.23;;
179;SDS011;78;48.788;9.010;2022-07-18T08:54:53;18.23;;;4.03;;
179;SDS011;78;48.788;9.010;2022-07-18T08:57:19;18.37;;;4.23;;
179;SDS011;78;48.788;9.010;2022-07-18T08:59:46;16.73;;;3.67;;
179;SDS011;78;48.788;9.010;2022-07-18T09:02:12;18.60;;;3.90;;
179;SDS011;78;48.788;9.010;2022-07-18T09:04:39;16.70;;;3.70;;
179;SDS011;78;48.788;9.010;2022-07-18T09:07:06;23.73;;;3.90;;
179;SDS011;78;48.788;9.010;2022-07-18T09:09:33;19.40;;;3.97;;
179;SDS011;78;48.788;9.010;2022-07-18T09:12:00;16.83;;;4.00;;
179;SDS011;78;48.788;9.010;2022-07-18T09:14:35;19.13;;;4.20;;
179;SDS011;78;48.788;9.010;2022-07-18T09:17:13;20.23;;;4.27;;
179;SDS011;78;48.788;9.010;2022-07-18T09:19:40;21.20;;;4.30;;
179;SDS011;78;48.788;9.010;2022-07-18T09:22:13;19.47;;;4.30;;
179;SDS011;78;48.788;9.010;2022-07-18T09:24:56;19.97;;;4.20;;
179;SDS011;78;48.788;9.010;2022-07-18T09:27:23;17.83;;;4.03;;
179;SDS011;78;48.788;9.010;2022-07-18T09:32:34;19.10;;;3.73;;
179;SDS011;78;48.788;9.010;2022-07-18T09:35:34;17.67;;;4.00;;
179;SDS011;78;48.788;9.010;2022-07-18T09:37:57;17.20;;;4.07;;
179;SDS011;78;48.788;9.010;2022-07-18T09:40:28;18.80;;;3.70;;
179;SDS011;78;48.788;9.010;2022-07-18T09:42:55;19.87;;;4.30;;
179;SDS011;78;48.788;9.010;2022-07-18T09:45:25;19.70;;;4.17;;
179;SDS011;78;48.788;9.010;2022-07-18T09:47:56;18.40;;;3.70;;
179;SDS011;78;48.788;9.010;2022-07-18T09:50:26;22.40;;;4.10;;
179;SDS011;78;48.788;9.010;2022-07-18T09:52:59;19.70;;;4.33;;
179;SDS011;78;48.788;9.010;2022-07-18T09:55:26;20.40;;;4.20;;
179;SDS011;78;48.788;9.010;2022-07-18T09:58:03;17.40;;;3.80;;
179;SDS011;78;48.788;9.010;2022-07-18T10:00:30;20.07;;;4.20;;
179;SDS011;78;48.788;9.010;2022-07-18T10:02:56;17.10;;;3.70;;
179;SDS011;78;48.788;9.010;2022-07-18T10:05:24;17.47;;;4.03;;
179;SDS011;78;48.788;9.010;2022-07-18T10:07:50;16.87;;;4.10;;
179;SDS011;78;48.788;9.010;2022-07-18T10:10:16;18.50;;;3.90;;
179;SDS011;78;48.788;9.010;2022-07-18T10:12:43;17.37;;;3.70;;
179;SDS011;78;48.788;9.010;2022-07-18T10:15:09;16.27;;;3.77;;
179;SDS011;78;48.788;9.010;2022-07-18T10:17:35;16.60;;;3.80;;
179;SDS011;78;48.788;9.010;2022-07-18T10:20:05;17.17;;;3.90;;
179;SDS011;78;48.788;9.010;2022-07-18T10:22:38;15.90;;;3.90;;
179;SDS011;78;48.788;9.010;2022-07-18T10:25:07;16.20;;;3.80;;
179;SDS011;78;48.788;9.010;2022-07-18T10:30:28;15.77;;;3.30;;
179;SDS011;78;48.788;9.010;2022-07-18T10:32:55;16.03;;;3.40;;
179;SDS011;78;48.788;9.010;2022-07-18T10:35:21;15.70;;;3.70;;
179;SDS011;78;48.788;9.010;2022-07-18T10:38:19;17.60;;;3.50;;
179;SDS011;78;48.788;9.010;2022-07-18T10:41:04;16.87;;;3.60;;
179;SDS011;78;48.788;9.010;2022-07-18T10:43:31;15.00;;;3.50;;
179;SDS011;78;48.788;9.010;2022-07-18T10:46:01;20.30;;;3.53;;
179;SDS011;78;48.788;9.010;2022-07-18T10:51:06;16.50;;;3.77;;
179;SDS011;78;48.788;9.010;2022-07-18T10:56:17;16.30;;;3.20;;
179;SDS011;78;48.788;9.010;2022-07-18T10:58:43;16.43;;;3.40;;
179;SDS011;78;48.788;9.010;2022-07-18T11:01:18;15.20;;;3.63;;
179;SDS011;78;48.788;9.010;2022-07-18T11:03:45;16.33;;;3.70;;
179;SDS011;78;48.788;9.010;2022-07-18T11:06:11;17.13;;;3.30;;
179;SDS011;78;48.788;9.010;2022-07-18T11:08:37;15.97;;;3.60;;
179;SDS011;78;48.788;9.010;2022-07-18T11:11:04;19.30;;;3.40;;
179;SDS011;78;48.788;9.010;2022-07-18T11:13:31;16.90;;;3.67;;
179;SDS011;78;48.788;9.010;2022-07-18T11:23:42;15.37;;;3.30;;
179;SDS011;78;48.788;9.010;2022-07-18T11:26:09;16.20;;;3.23;;
179;SDS011;78;48.788;9.010;2022-07-18T11:28:39;14.73;;;3.23;;
179;SDS011;78;48.788;9.010;2022-07-18T11:31:06;16.40;;;3.13;;
179;SDS011;78;48.788;9.010;2022-07-18T11:33:34;14.30;;;2.90;;
179;SDS011;78;48.788;9.010;2022-07-18T11:36:07;16.70;;;3.10;;
179;SDS011;78;48.788;9.010;2022-07-18T11:38:40;16.27;;;3.00;;
179;SDS011;78;48.788;9.010;2022-07-18T11:41:11;18.43;;;3.47;;
179;SDS011;78;48.788;9.010;2022-07-18T11:43:37;14.70;;;3.10;;
179;SDS011;78;48.788;9.010;2022-07-18T11:48:29;14.37;;;2.80;;
179;SDS011;78;48.788;9.010;2022-07-18T11:50:55;15.30;;;2.83;;
179;SDS011;78;48.788;9.010;2022-07-18T11:53:21;19.53;;;2.90;;
179;SDS011;78;48.788;9.010;2022-07-18T11:55:47;14.70;;;3.00;;
179;SDS011;78;48.788;9.010;2022-07-18T11:58:14;16.90;;;3.10;;
179;SDS011;78;48.788;9.010;2022-07-18T12:00:41;14.00;;;2.80;;
179;SDS011;78;48.788;9.010;2022-07-18T12:05:35;16.97;;;2.63;;
179;SDS011;78;48.788;9.010;2022-07-18T12:08:01;15.90;;;2.70;;
179;SDS011;78;48.788;9.010;2022-07-18T12:10:27;15.37;;;2.90;;
179;SDS011;78;48.788;9.010;2022-07-18T12:12:53;13.63;;;2.60;;
179;SDS011;78;48.788;9.010;2022-07-18T12:15:19;13.03;;;2.50;;
179;SDS011;78;48.788;9.010;2022-07-18T12:17:46;14.23;;;2.30;;
179;SDS011;78;48.788;9.010;2022-07-18T12:20:17;14.40;;;2.50;;
179;SDS011;78;48.788;9.010;2022-07-18T12:25:41;16.40;;;2.60;;
179;SDS011;78;48.788;9.010;2022-07-18T12:28:13;13.82;;;2.50;;
179;SDS011;78;48.788;9.010;2022-07-18T12:30:39;12.50;;;2.00;;
179;SDS011;78;48.788;9.010;2022-07-18T12:33:08;12.90;;;2.40;;
179;SDS011;78;48.788;9.010;2022-07-18T12:35:35;14.68;;;2.35;;
179;SDS011;78;48.788;9.010;2022-07-18T12:43:16;13.05;;;2.10;;
179;SDS011;78;48.788;9.010;2022-07-18T12:45:48;14.90;;;2.30;;
179;SDS011;78;48.788;9.010;2022-07-18T12:48:14;12.10;;;2.05;;
179;SDS011;78;48.788;9.010;2022-07-18T12:50:40;13.70;;;2.17;;
179;SDS011;78;48.788;9.010;2022-07-18T12:53:06;12.43;;;2.10;;
179;SDS011;78;48.788;9.010;2022-07-18T12:55:32;13.82;;;2.20;;
179;SDS011;78;48.788;9.010;2022-07-18T12:57:59;13.68;;;2.00;;
179;SDS011;78;48.788;9.010;2022-07-18T13:00:25;13.20;;;2.05;;
179;SDS011;78;48.788;9.010;2022-07-18T13:02:51;12.85;;;2.13;;
179;SDS011;78;48.788;9.010;2022-07-18T13:05:20;13.18;;;2.22;;
179;SDS011;78;48.788;9.010;2022-07-18T13:07:46;13.55;;;2.10;;
179;SDS011;78;48.788;9.010;2022-07-18T13:10:12;13.13;;;2.00;;
179;SDS011;78;48.788;9.010;2022-07-18T13:12:38;17.10;;;1.95;;
179;SDS011;78;48.788;9.010;2022-07-18T13:15:04;15.48;;;1.90;;
179;SDS011;78;48.788;9.010;2022-07-18T13:17:31;11.98;;;2.00;;
179;SDS011;78;48.788;9.010;2022-07-18T13:19:57;11.75;;;1.80;;
179;SDS011;78;48.788;9.010;2022-07-18T13:22:22;11.95;;;1.88;;
179;SDS011;78;48.788;9.010;2022-07-18T13:24:49;12.85;;;1.88;;
179;SDS011;78;48.788;9.010;2022-07-18T13:27:15;12.15;;;2.10;;
179;SDS011;78;48.788;9.010;2022-07-18T13:29:44;15.60;;;1.90;;
179;SDS011;78;48.788;9.010;2022-07-18T13:32:10;12.27;;;1.95;;
179;SDS011;78;48.788;9.010;2022-07-18T13:34:36;13.88;;;2.15;;
179;SDS011;78;48.788;9.010;2022-07-18T13:37:01;13.40;;;2.25;;
179;SDS011;78;48.788;9.010;2022-07-18T13:39:27;12.60;;;1.90;;
179;SDS011;78;48.788;9.010;2022-07-18T13:41:53;12.48;;;1.95;;
179;SDS011;78;48.788;9.010;2022-07-18T13:44:19;12.18;;;2.00;;
179;SDS011;78;48.788;9.010;2022-07-18T13:46:45;12.32;;;1.90;;
179;SDS011;78;48.788;9.010;2022-07-18T13:49:11;12.07;;;1.92;;
179;SDS011;78;48.788;9.010;2022-07-18T13:51:38;11.68;;;1.95;;
179;SDS011;78;48.788;9.010;2022-07-18T13:54:04;13.13;;;2.00;;
179;SDS011;78;48.788;9.010;2022-07-18T13:56:31;11.95;;;2.10;;
179;SDS011;78;48.788;9.010;2022-07-18T13:58:57;11.40;;;1.70;;
179;SDS011;78;48.788;9.010;2022-07-18T14:01:22;13.00;;;2.00;;
179;SDS011;78;48.788;9.010;2022-07-18T14:03:49;12.90;;;1.90;;
179;SDS011;78;48.788;9.010;2022-07-18T14:06:15;11.48;;;1.80;;
179;SDS011;78;48.788;9.010;2022-07-18T14:08:41;12.00;;;1.70;;
179;SDS011;78;48.788;9.010;2022-07-18T14:11:07;12.35;;;1.90;;
179;SDS011;78;48.788;9.010;2022-07-18T14:13:33;13.82;;;1.80;;
179;SDS011;78;48.788;9.010;2022-07-18T14:15:59;13.93;;;2.05;;
179;SDS011;78;48.788;9.010;2022-07-18T14:18:25;12.40;;;1.80;;
179;SDS011;78;48.788;9.010;2022-07-18T14:20:51;13.68;;;1.80;;
179;SDS011;78;48.788;9.010;2022-07-18T14:23:17;16.63;;;2.10;;
179;SDS011;78;48.788;9.010;2022-07-18T14:25:43;12.75;;;1.90;;
179;SDS011;78;48.788;9.010;2022-07-18T14:28:11;12.70;;;1.70;;
179;SDS011;78;48.788;9.010;2022-07-18T14:30:37;12.10;;;1.90;;
179;SDS011;78;48.788;9.010;2022-07-18T14:33:03;13.02;;;2.00;;
179;SDS011;78;48.788;9.010;2022-07-18T14:35:29;12.00;;;1.77;;
179;SDS011;78;48.788;9.010;2022-07-18T14:37:55;12.15;;;1.85;;
179;SDS011;78;48.788;9.010;2022-07-18T14:40:21;11.45;;;1.85;;
179;SDS011;78;48.788;9.010;2022-07-18T14:42:47;14.77;;;2.00;;
179;SDS011;78;48.788;9.010;2022-07-18T14:45:14;14.43;;;2.17;;
179;SDS011;78;48.788;9.010;2022-07-18T14:47:40;11.48;;;1.80;;
179;SDS011;78;48.788;9.010;2022-07-18T14:50:06;12.60;;;2.00;;
179;SDS011;78;48.788;9.010;2022-07-18T14:52:33;14.70;;;2.30;;
179;SDS011;78;48.788;9.010;2022-07-18T14:54:59;12.15;;;2.00;;
179;SDS011;78;48.788;9.010;2022-07-18T14:57:25;11.70;;;1.80;;
179;SDS011;78;48.788;9.010;2022-07-18T14:59:51;14.05;;;2.10;;
179;SDS011;78;48.788;9.010;2022-07-18T15:02:17;11.98;;;1.90;;
179;SDS011;78;48.788;9.010;2022-07-18T15:04:43;15.20;;;2.20;;
179;SDS011;78;48.788;9.010;2022-07-18T15:07:09;15.00;;;2.15;;
179;SDS011;78;48.788;9.010;2022-07-18T15:09:35;13.25;;;2.22;;
179;SDS011;78;48.788;9.010;2022-07-18T15:12:01;14.00;;;2.08;;
179;SDS011;78;48.788;9.010;2022-07-18T15:14:28;12.80;;;2.00;;
179;SDS011;78;48.788;9.010;2022-07-18T15:16:54;12.40;;;2.15;;
179;SDS011;78;48.788;9.010;2022-07-18T15:19:20;12.98;;;2.05;;
179;SDS011;78;48.788;9.010;2022-07-18T15:21:46;14.38;;;2.33;;
179;SDS011;78;48.788;9.010;2022-07-18T15:24:12;12.18;;;2.10;;
179;SDS011;78;48.788;9.010;2022-07-18T15:26:38;12.40;;;2.00;;
179;SDS011;78;48.788;9.010;2022-07-18T15:29:04;13.23;;;2.08;;
179;SDS011;78;48.788;9.010;2022-07-18T15:31:32;14.75;;;1.98;;
179;SDS011;78;48.788;9.010;2022-07-18T15:33:58;12.60;;;2.00;;
179;SDS011;78;48.788;9.010;2022-07-18T15:36:24;14.80;;;2.05;;
179;SDS011;78;48.788;9.010;2022-07-18T15:38:50;15.35;;;2.50;;
179;SDS011;78;48.788;9.010;2022-07-18T15:41:16;12.65;;;2.10;;
179;SDS011;78;48.788;9.010;2022-07-18T15:43:45;11.98;;;2.13;;
179;SDS011;78;48.788;9.010;2022-07-18T15:46:11;12.30;;;2.13;;
179;SDS011;78;48.788;9.010;2022-07-18T15:48:44;12.38;;;2.03;;
179;SDS011;78;48.788;9.010;2022-07-18T15:51:10;12.90;;;1.90;;
179;SDS011;78;48.788;9.010;2022-07-18T15:53:36;13.02;;;2.00;;
179;SDS011;78;48.788;9.010;2022-07-18T15:56:03;12.98;;;2.10;;
179;SDS011;78;48.788;9.010;2022-07-18T15:58:29;13.82;;;2.20;;
179;SDS011;78;48.788;9.010;2022-07-18T16:00:55;13.23;;;2.00;;
179;SDS011;78;48.788;9.010;2022-07-18T16:03:21;13.10;;;2.30;;
179;SDS011;78;48.788;9.010;2022-07-18T16:05:48;14.88;;;2.40;;
179;SDS011;78;48.788;9.010;2022-07-18T16:08:14;12.32;;;2.10;;
179;SDS011;78;48.788;9.010;2022-07-18T16:10:40;13.05;;;2.17;;
179;SDS011;78;48.788;9.010;2022-07-18T16:13:06;12.70;;;2.10;;